sensor_id;sensor_type;location;lat;lon;timestamp;pressure;altitude;pressure_sealevel;temperature;humidity
39897;BME280;25567;48.276;14.242;2023-02-12T00:01:16;100226.81;;;1.99;86.71
39897;BME280;25567;48.276;14.242;2023-02-12T00:03:44;100238.25;;;1.98;86.43
39897;BME280;25567;48.276;14.242;2023-02-12T00:06:12;100231.47;;;1.96;86.86
39897;BME280;25567;48.276;14.242;2023-02-12T00:08:42;100235.88;;;1.95;87.10
39897;BME280;25567;48.276;14.242;2023-02-12T00:11:16;100243.59;;;1.97;87.23
39897;BME280;25567;48.276;14.242;2023-02-12T00:13:44;100234.94;;;1.96;87.53
39897;BME280;25567;48.276;14.242;2023-02-12T00:16:15;100238.50;;;1.95;87.33
39897;BME280;25567;48.276;14.242;2023-02-12T00:18:43;100223.25;;;2.00;88.18
39897;BME280;25567;48.276;14.242;2023-02-12T00:21:12;100224.66;;;2.05;88.20
39897;BME280;25567;48.276;14.242;2023-02-12T00:23:41;100228.22;;;2.04;88.40
39897;BME280;25567;48.276;14.242;2023-02-12T00:26:12;100226.19;;;2.07;88.42
39897;BME280;25567;48.276;14.242;2023-02-12T00:28:41;100231.72;;;2.14;89.01
39897;BME280;25567;48.276;14.242;2023-02-12T00:31:12;100233.38;;;2.15;89.51
39897;BME280;25567;48.276;14.242;2023-02-12T00:33:40;100247.03;;;2.19;89.93
39897;BME280;25567;48.276;14.242;2023-02-12T00:36:12;100260.53;;;2.14;90.36
39897;BME280;25567;48.276;14.242;2023-02-12T00:38:40;100259.34;;;2.07;90.53
39897;BME280;25567;48.276;14.242;2023-02-12T00:41:09;100254.09;;;2.28;90.44
39897;BME280;25567;48.276;14.242;2023-02-12T00:43:37;100240.47;;;2.24;90.30
39897;BME280;25567;48.276;14.242;2023-02-12T00:46:04;100244.38;;;2.40;90.43
39897;BME280;25567;48.276;14.242;2023-02-12T00:48:34;100246.44;;;2.36;90.61
39897;BME280;25567;48.276;14.242;2023-02-12T00:51:02;100249.84;;;2.27;91.29
39897;BME280;25567;48.276;14.242;2023-02-12T00:53:31;100257.28;;;2.31;91.65
39897;BME280;25567;48.276;14.242;2023-02-12T00:56:00;100257.31;;;2.41;91.80
39897;BME280;25567;48.276;14.242;2023-02-12T00:58:27;100245.25;;;2.50;91.70
39897;BME280;25567;48.276;14.242;2023-02-12T01:00:55;100248.38;;;2.44;91.72
39897;BME280;25567;48.276;14.242;2023-02-12T01:03:24;100246.31;;;2.38;92.19
39897;BME280;25567;48.276;14.242;2023-02-12T01:05:52;100249.06;;;2.36;92.92
39897;BME280;25567;48.276;14.242;2023-02-12T01:08:21;100255.56;;;2.42;92.78
39897;BME280;25567;48.276;14.242;2023-02-12T01:10:59;100252.53;;;2.46;92.94
39897;BME280;25567;48.276;14.242;2023-02-12T01:13:28;100253.81;;;2.52;93.55
39897;BME280;25567;48.276;14.242;2023-02-12T01:18:41;100248.03;;;2.58;93.68
39897;BME280;25567;48.276;14.242;2023-02-12T01:21:14;100248.47;;;2.63;93.44
39897;BME280;25567;48.276;14.242;2023-02-12T01:23:42;100240.31;;;2.66;93.42
39897;BME280;25567;48.276;14.242;2023-02-12T01:26:11;100243.34;;;2.62;93.59
39897;BME280;25567;48.276;14.242;2023-02-12T01:28:42;100240.06;;;2.70;94.10
39897;BME280;25567;48.276;14.242;2023-02-12T01:31:14;100235.94;;;2.67;94.33
39897;BME280;25567;48.276;14.242;2023-02-12T01:33:45;100234.97;;;2.68;94.57
39897;BME280;25567;48.276;14.242;2023-02-12T01:36:17;100227.22;;;2.57;95.18
39897;BME280;25567;48.276;14.242;2023-02-12T01:38:46;100233.31;;;2.67;96.11
39897;BME280;25567;48.276;14.242;2023-02-12T01:41:18;100240.00;;;2.50;97.13
39897;BME280;25567;48.276;14.242;2023-02-12T01:46:32;100241.13;;;2.57;97.55
39897;BME280;25567;48.276;14.242;2023-02-12T01:49:01;100233.41;;;2.56;97.68
39897;BME280;25567;48.276;14.242;2023-02-12T01:51:31;100237.53;;;2.58;98.32
39897;BME280;25567;48.276;14.242;2023-02-12T01:54:02;100242.66;;;2.60;98.21
39897;BME280;25567;48.276;14.242;2023-02-12T01:56:31;100246.78;;;2.62;98.40
39897;BME280;25567;48.276;14.242;2023-02-12T01:59:01;100249.56;;;2.61;98.26
39897;BME280;25567;48.276;14.242;2023-02-12T02:01:30;100246.97;;;2.71;98.56
39897;BME280;25567;48.276;14.242;2023-02-12T02:04:05;100244.66;;;2.77;98.56
39897;BME280;25567;48.276;14.242;2023-02-12T02:06:40;100248.47;;;2.73;98.36
39897;BME280;25567;48.276;14.242;2023-02-12T02:09:12;100247.53;;;2.74;98.98
39897;BME280;25567;48.276;14.242;2023-02-12T02:11:40;100251.38;;;2.70;99.19
39897;BME280;25567;48.276;14.242;2023-02-12T02:14:27;100262.44;;;2.74;99.54
39897;BME280;25567;48.276;14.242;2023-02-12T02:17:11;100267.38;;;2.67;99.79
39897;BME280;25567;48.276;14.242;2023-02-12T02:20:05;100264.75;;;2.67;100.00
39897;BME280;25567;48.276;14.242;2023-02-12T02:22:39;100269.41;;;2.63;100.00
39897;BME280;25567;48.276;14.242;2023-02-12T02:31:02;100262.00;;;2.69;100.00
39897;BME280;25567;48.276;14.242;2023-02-12T02:38:57;100256.94;;;2.46;100.00
39897;BME280;25567;48.276;14.242;2023-02-12T02:41:29;100256.78;;;2.38;100.00
39897;BME280;25567;48.276;14.242;2023-02-12T02:44:04;100255.94;;;2.37;100.00
39897;BME280;25567;48.276;14.242;2023-02-12T02:46:45;100258.81;;;2.34;100.00
39897;BME280;25567;48.276;14.242;2023-02-12T02:49:20;100258.53;;;2.27;100.00
39897;BME280;25567;48.276;14.242;2023-02-12T02:51:54;100263.75;;;2.27;100.00
39897;BME280;25567;48.276;14.242;2023-02-12T02:54:31;100256.47;;;2.31;100.00
39897;BME280;25567;48.276;14.242;2023-02-12T02:57:08;100262.81;;;2.28;100.00
39897;BME280;25567;48.276;14.242;2023-02-12T02:59:43;100269.56;;;2.31;100.00
39897;BME280;25567;48.276;14.242;2023-02-12T03:02:19;100264.06;;;2.34;100.00
39897;BME280;25567;48.276;14.242;2023-02-12T03:04:57;100262.03;;;2.38;100.00
39897;BME280;25567;48.276;14.242;2023-02-12T03:07:31;100257.59;;;2.38;100.00
39897;BME280;25567;48.276;14.242;2023-02-12T03:10:05;100261.47;;;2.44;100.00
39897;BME280;25567;48.276;14.242;2023-02-12T03:12:40;100255.94;;;2.37;100.00
39897;BME280;25567;48.276;14.242;2023-02-12T03:15:26;100253.44;;;2.36;100.00
39897;BME280;25567;48.276;14.242;2023-02-12T03:17:57;100245.75;;;2.44;100.00
39897;BME280;25567;48.276;14.242;2023-02-12T03:20:30;100249.88;;;2.37;100.00
39897;BME280;25567;48.276;14.242;2023-02-12T03:23:05;100239.38;;;2.27;100.00
39897;BME280;25567;48.276;14.242;2023-02-12T03:25:40;100253.66;;;2.23;100.00
39897;BME280;25567;48.276;14.242;2023-02-12T03:28:17;100261.78;;;2.20;100.00
39897;BME280;25567;48.276;14.242;2023-02-12T03:30:57;100271.44;;;2.19;100.00
39897;BME280;25567;48.276;14.242;2023-02-12T03:36:29;100276.22;;;2.14;100.00
39897;BME280;25567;48.276;14.242;2023-02-12T03:39:03;100283.22;;;2.13;100.00
39897;BME280;25567;48.276;14.242;2023-02-12T03:41:54;100277.31;;;2.11;100.00
39897;BME280;25567;48.276;14.242;2023-02-12T03:47:15;100282.53;;;2.11;100.00
39897;BME280;25567;48.276;14.242;2023-02-12T03:50:06;100279.06;;;2.11;100.00
39897;BME280;25567;48.276;14.242;2023-02-12T03:52:35;100281.84;;;2.09;100.00
39897;BME280;25567;48.276;14.242;2023-02-12T03:55:04;100285.31;;;2.10;100.00
39897;BME280;25567;48.276;14.242;2023-02-12T03:57:38;100295.78;;;2.10;100.00
39897;BME280;25567;48.276;14.242;2023-02-12T04:00:16;100295.78;;;2.10;100.00
39897;BME280;25567;48.276;14.242;2023-02-12T04:02:45;100292.75;;;2.14;100.00
39897;BME280;25567;48.276;14.242;2023-02-12T04:05:24;100297.41;;;2.11;100.00
39897;BME280;25567;48.276;14.242;2023-02-12T04:07:54;100300.16;;;2.09;100.00
39897;BME280;25567;48.276;14.242;2023-02-12T04:10:29;100307.88;;;2.11;100.00
39897;BME280;25567;48.276;14.242;2023-02-12T04:13:18;100304.19;;;2.13;100.00
39897;BME280;25567;48.276;14.242;2023-02-12T04:18:43;100320.09;;;2.22;100.00
39897;BME280;25567;48.276;14.242;2023-02-12T04:26:22;100305.41;;;2.09;100.00
39897;BME280;25567;48.276;14.242;2023-02-12T04:31:32;100299.91;;;2.12;100.00
39897;BME280;25567;48.276;14.242;2023-02-12T04:34:09;100299.34;;;2.09;100.00
39897;BME280;25567;48.276;14.242;2023-02-12T04:36:49;100301.00;;;2.10;100.00
39897;BME280;25567;48.276;14.242;2023-02-12T04:39:23;100310.38;;;2.12;100.00
39897;BME280;25567;48.276;14.242;2023-02-12T04:41:51;100307.50;;;2.15;100.00
39897;BME280;25567;48.276;14.242;2023-02-12T04:44:26;100318.94;;;2.14;100.00
39897;BME280;25567;48.276;14.242;2023-02-12T04:46:54;100313.69;;;2.14;100.00
39897;BME280;25567;48.276;14.242;2023-02-12T04:49:22;100325.13;;;2.13;100.00
39897;BME280;25567;48.276;14.242;2023-02-12T04:51:50;100323.72;;;2.09;100.00
39897;BME280;25567;48.276;14.242;2023-02-12T04:54:19;100321.69;;;2.13;100.00
39897;BME280;25567;48.276;14.242;2023-02-12T04:56:46;100321.69;;;2.13;100.00
39897;BME280;25567;48.276;14.242;2023-02-12T04:59:15;100325.25;;;2.12;100.00
39897;BME280;25567;48.276;14.242;2023-02-12T05:01:43;100324.31;;;2.13;100.00
39897;BME280;25567;48.276;14.242;2023-02-12T05:04:13;100328.31;;;2.17;100.00
39897;BME280;25567;48.276;14.242;2023-02-12T05:06:43;100331.06;;;2.15;100.00
39897;BME280;25567;48.276;14.242;2023-02-12T05:09:14;100332.75;;;2.16;100.00
39897;BME280;25567;48.276;14.242;2023-02-12T05:11:43;100340.00;;;2.13;100.00
39897;BME280;25567;48.276;14.242;2023-02-12T05:14:12;100337.84;;;2.18;100.00
39897;BME280;25567;48.276;14.242;2023-02-12T05:16:40;100336.44;;;2.14;100.00
39897;BME280;25567;48.276;14.242;2023-02-12T05:19:08;100344.16;;;2.15;100.00
39897;BME280;25567;48.276;14.242;2023-02-12T05:21:37;100340.13;;;2.11;100.00
39897;BME280;25567;48.276;14.242;2023-02-12T05:24:06;100348.44;;;2.16;100.00
39897;BME280;25567;48.276;14.242;2023-02-12T05:26:33;100351.28;;;2.13;100.00
39897;BME280;25567;48.276;14.242;2023-02-12T05:29:01;100349.53;;;2.14;100.00
39897;BME280;25567;48.276;14.242;2023-02-12T05:31:30;100366.91;;;2.15;100.00
39897;BME280;25567;48.276;14.242;2023-02-12T05:33:58;100361.91;;;2.12;100.00
39897;BME280;25567;48.276;14.242;2023-02-12T05:36:28;100369.53;;;2.15;100.00
39897;BME280;25567;48.276;14.242;2023-02-12T05:38:57;100365.09;;;2.15;100.00
39897;BME280;25567;48.276;14.242;2023-02-12T05:41:27;100370.22;;;2.17;100.00
39897;BME280;25567;48.276;14.242;2023-02-12T05:43:55;100369.41;;;2.16;100.00
39897;BME280;25567;48.276;14.242;2023-02-12T05:46:22;100373.78;;;2.16;100.00
39897;BME280;25567;48.276;14.242;2023-02-12T05:48:50;100373.78;;;2.16;100.00
39897;BME280;25567;48.276;14.242;2023-02-12T05:51:22;100375.72;;;2.14;100.00
39897;BME280;25567;48.276;14.242;2023-02-12T05:53:56;100377.88;;;2.09;100.00
39897;BME280;25567;48.276;14.242;2023-02-12T05:56:28;100374.19;;;2.11;100.00
39897;BME280;25567;48.276;14.242;2023-02-12T05:58:59;100384.19;;;2.06;100.00
39897;BME280;25567;48.276;14.242;2023-02-12T06:01:32;100386.00;;;2.06;100.00
39897;BME280;25567;48.276;14.242;2023-02-12T06:04:01;100383.78;;;2.11;100.00
39897;BME280;25567;48.276;14.242;2023-02-12T06:06:30;100385.00;;;2.07;100.00
39897;BME280;25567;48.276;14.242;2023-02-12T06:08:59;100386.09;;;2.04;100.00
39897;BME280;25567;48.276;14.242;2023-02-12T06:11:27;100387.16;;;2.02;100.00
39897;BME280;25567;48.276;14.242;2023-02-12T06:13:56;100400.22;;;2.13;100.00
39897;BME280;25567;48.276;14.242;2023-02-12T06:16:26;100402.56;;;2.16;100.00
39897;BME280;25567;48.276;14.242;2023-02-12T06:18:55;100401.16;;;2.12;100.00
39897;BME280;25567;48.276;14.242;2023-02-12T06:21:25;100408.03;;;2.24;100.00
39897;BME280;25567;48.276;14.242;2023-02-12T06:23:52;100415.25;;;2.32;100.00
39897;BME280;25567;48.276;14.242;2023-02-12T06:26:20;100409.03;;;2.33;100.00
39897;BME280;25567;48.276;14.242;2023-02-12T06:28:48;100421.06;;;2.36;100.00
39897;BME280;25567;48.276;14.242;2023-02-12T06:31:23;100421.78;;;2.38;100.00
39897;BME280;25567;48.276;14.242;2023-02-12T06:33:54;100419.78;;;2.30;100.00
39897;BME280;25567;48.276;14.242;2023-02-12T06:36:23;100419.66;;;2.31;100.00
39897;BME280;25567;48.276;14.242;2023-02-12T06:38:52;100432.75;;;2.31;100.00
39897;BME280;25567;48.276;14.242;2023-02-12T06:41:20;100433.84;;;2.29;100.00
39897;BME280;25567;48.276;14.242;2023-02-12T06:43:48;100421.81;;;2.26;100.00
39897;BME280;25567;48.276;14.242;2023-02-12T06:46:15;100425.91;;;2.19;100.00
39897;BME280;25567;48.276;14.242;2023-02-12T06:48:44;100429.22;;;2.21;100.00
39897;BME280;25567;48.276;14.242;2023-02-12T06:51:15;100431.38;;;2.16;100.00
39897;BME280;25567;48.276;14.242;2023-02-12T06:53:43;100423.44;;;2.17;100.00
39897;BME280;25567;48.276;14.242;2023-02-12T06:56:13;100429.75;;;2.15;100.00
39897;BME280;25567;48.276;14.242;2023-02-12T06:58:44;100431.63;;;2.13;100.00
39897;BME280;25567;48.276;14.242;2023-02-12T07:01:16;100438.53;;;2.14;100.00
39897;BME280;25567;48.276;14.242;2023-02-12T07:03:52;100434.00;;;2.16;100.00
39897;BME280;25567;48.276;14.242;2023-02-12T07:06:20;100425.31;;;2.15;100.00
39897;BME280;25567;48.276;14.242;2023-02-12T07:08:48;100422.56;;;2.17;100.00
39897;BME280;25567;48.276;14.242;2023-02-12T07:11:17;100419.19;;;2.26;100.00
39897;BME280;25567;48.276;14.242;2023-02-12T07:13:45;100429.34;;;2.20;100.00
39897;BME280;25567;48.276;14.242;2023-02-12T07:16:15;100429.59;;;2.16;100.00
39897;BME280;25567;48.276;14.242;2023-02-12T07:18:43;100440.22;;;2.15;100.00
39897;BME280;25567;48.276;14.242;2023-02-12T07:21:13;100450.78;;;2.13;100.00
39897;BME280;25567;48.276;14.242;2023-02-12T07:23:44;100458.75;;;2.12;100.00
39897;BME280;25567;48.276;14.242;2023-02-12T07:26:16;100456.16;;;2.12;100.00
39897;BME280;25567;48.276;14.242;2023-02-12T07:28:45;100456.16;;;2.12;100.00
39897;BME280;25567;48.276;14.242;2023-02-12T07:31:17;100455.19;;;2.13;100.00
39897;BME280;25567;48.276;14.242;2023-02-12T07:33:47;100454.25;;;2.14;100.00
39897;BME280;25567;48.276;14.242;2023-02-12T07:36:17;100455.19;;;2.13;100.00
39897;BME280;25567;48.276;14.242;2023-02-12T07:38:46;100458.53;;;2.15;100.00
39897;BME280;25567;48.276;14.242;2023-02-12T07:41:19;100458.00;;;2.32;100.00
39897;BME280;25567;48.276;14.242;2023-02-12T07:43:48;100451.53;;;2.37;100.00
39897;BME280;25567;48.276;14.242;2023-02-12T07:46:23;100447.91;;;2.49;100.00
39897;BME280;25567;48.276;14.242;2023-02-12T07:48:53;100443.75;;;2.46;100.00
39897;BME280;25567;48.276;14.242;2023-02-12T07:51:20;100445.72;;;2.54;100.00
39897;BME280;25567;48.276;14.242;2023-02-12T07:53:50;100440.75;;;2.51;100.00
39897;BME280;25567;48.276;14.242;2023-02-12T07:56:20;100449.25;;;2.43;100.00
39897;BME280;25567;48.276;14.242;2023-02-12T07:58:51;100453.84;;;2.51;100.00
39897;BME280;25567;48.276;14.242;2023-02-12T08:01:21;100455.31;;;2.44;100.00
39897;BME280;25567;48.276;14.242;2023-02-12T08:03:50;100452.00;;;2.42;100.00
39897;BME280;25567;48.276;14.242;2023-02-12T08:06:21;100458.06;;;2.42;100.00
39897;BME280;25567;48.276;14.242;2023-02-12T08:08:54;100451.72;;;2.45;100.00
39897;BME280;25567;48.276;14.242;2023-02-12T08:11:24;100464.38;;;2.40;100.00
39897;BME280;25567;48.276;14.242;2023-02-12T08:13:56;100465.72;;;2.34;100.00
39897;BME280;25567;48.276;14.242;2023-02-12T08:16:26;100464.75;;;2.35;100.00
39897;BME280;25567;48.276;14.242;2023-02-12T08:18:56;100457.03;;;2.33;100.00
39897;BME280;25567;48.276;14.242;2023-02-12T08:21:42;100460.81;;;2.41;100.00
39897;BME280;25567;48.276;14.242;2023-02-12T08:24:11;100461.53;;;2.43;100.00
39897;BME280;25567;48.276;14.242;2023-02-12T08:26:39;100462.22;;;2.45;100.00
39897;BME280;25567;48.276;14.242;2023-02-12T08:29:11;100454.03;;;2.38;100.00
39897;BME280;25567;48.276;14.242;2023-02-12T08:31:43;100459.09;;;2.51;100.00
39897;BME280;25567;48.276;14.242;2023-02-12T08:34:19;100467.44;;;2.45;100.00
39897;BME280;25567;48.276;14.242;2023-02-12T08:36:50;100461.44;;;2.54;100.00
39897;BME280;25567;48.276;14.242;2023-02-12T08:39:22;100457.81;;;2.45;100.00
39897;BME280;25567;48.276;14.242;2023-02-12T08:41:54;100462.53;;;2.52;100.00
39897;BME280;25567;48.276;14.242;2023-02-12T08:44:23;100458.56;;;2.57;100.00
39897;BME280;25567;48.276;14.242;2023-02-12T08:46:52;100462.16;;;2.56;100.00
39897;BME280;25567;48.276;14.242;2023-02-12T08:49:25;100461.44;;;2.54;100.00
39897;BME280;25567;48.276;14.242;2023-02-12T08:51:56;100461.72;;;2.51;100.00
39897;BME280;25567;48.276;14.242;2023-02-12T08:54:25;100465.47;;;2.58;100.00
39897;BME280;25567;48.276;14.242;2023-02-12T08:56:54;100473.47;;;2.57;100.00
39897;BME280;25567;48.276;14.242;2023-02-12T08:59:24;100472.38;;;2.59;100.00
39897;BME280;25567;48.276;14.242;2023-02-12T09:01:52;100470.53;;;2.71;100.00
39897;BME280;25567;48.276;14.242;2023-02-12T09:04:24;100477.91;;;2.77;100.00
39897;BME280;25567;48.276;14.242;2023-02-12T09:06:54;100472.84;;;2.86;100.00
39897;BME280;25567;48.276;14.242;2023-02-12T09:09:21;100481.53;;;2.86;100.00
39897;BME280;25567;48.276;14.242;2023-02-12T09:11:51;100477.00;;;2.88;100.00
39897;BME280;25567;48.276;14.242;2023-02-12T09:14:20;100484.31;;;2.94;100.00
39897;BME280;25567;48.276;14.242;2023-02-12T09:16:52;100483.81;;;3.00;100.00
39897;BME280;25567;48.276;14.242;2023-02-12T09:19:19;100489.97;;;2.90;100.00
39897;BME280;25567;48.276;14.242;2023-02-12T09:21:50;100498.41;;;2.93;100.00
39897;BME280;25567;48.276;14.242;2023-02-12T09:24:24;100497.66;;;2.81;100.00
39897;BME280;25567;48.276;14.242;2023-02-12T09:26:54;100503.56;;;2.83;100.00
39897;BME280;25567;48.276;14.242;2023-02-12T09:29:21;100509.66;;;2.84;100.00
39897;BME280;25567;48.276;14.242;2023-02-12T09:31:50;100506.66;;;2.89;100.00
39897;BME280;25567;48.276;14.242;2023-02-12T09:34:18;100510.81;;;2.91;100.00
39897;BME280;25567;48.276;14.242;2023-02-12T09:36:48;100509.53;;;2.86;100.00
39897;BME280;25567;48.276;14.242;2023-02-12T09:39:17;100510.81;;;2.91;100.00
39897;BME280;25567;48.276;14.242;2023-02-12T09:42:00;100511.06;;;2.88;100.00
39897;BME280;25567;48.276;14.242;2023-02-12T09:44:45;100514.13;;;2.93;100.00
39897;BME280;25567;48.276;14.242;2023-02-12T09:47:28;100511.13;;;2.98;100.00
39897;BME280;25567;48.276;14.242;2023-02-12T09:50:36;100514.00;;;2.95;100.00
39897;BME280;25567;48.276;14.242;2023-02-12T09:52:47;100522.19;;;3.02;100.00
39897;BME280;25567;48.276;14.242;2023-02-12T09:55:16;100520.47;;;3.12;100.00
39897;BME280;25567;48.276;14.242;2023-02-12T09:57:46;100525.75;;;3.22;100.00
39897;BME280;25567;48.276;14.242;2023-02-12T10:00:30;100522.31;;;3.21;100.00
39897;BME280;25567;48.276;14.242;2023-02-12T10:03:02;100520.69;;;3.30;100.00
39897;BME280;25567;48.276;14.242;2023-02-12T10:05:38;100523.44;;;3.28;100.00
39897;BME280;25567;48.276;14.242;2023-02-12T10:08:14;100520.31;;;3.34;100.00
39897;BME280;25567;48.276;14.242;2023-02-12T10:13:41;100528.06;;;3.46;100.00
39897;BME280;25567;48.276;14.242;2023-02-12T10:22:09;100528.38;;;3.53;100.00
39897;BME280;25567;48.276;14.242;2023-02-12T10:24:56;100523.03;;;3.54;100.00
39897;BME280;25567;48.276;14.242;2023-02-12T10:27:53;100533.75;;;3.51;100.00
39897;BME280;25567;48.276;14.242;2023-02-12T10:30:26;100524.84;;;3.63;100.00
39897;BME280;25567;48.276;14.242;2023-02-12T10:33:01;100532.03;;;3.71;100.00
39897;BME280;25567;48.276;14.242;2023-02-12T10:35:32;100521.97;;;3.76;100.00
39897;BME280;25567;48.276;14.242;2023-02-12T10:38:19;100525.56;;;3.75;100.00
39897;BME280;25567;48.276;14.242;2023-02-12T10:40:49;100535.66;;;3.70;100.00
39897;BME280;25567;48.276;14.242;2023-02-12T10:43:17;100526.78;;;3.71;100.00
39897;BME280;25567;48.276;14.242;2023-02-12T10:45:46;100525.00;;;3.72;100.00
39897;BME280;25567;48.276;14.242;2023-02-12T10:51:19;100530.41;;;3.80;100.00
39897;BME280;25567;48.276;14.242;2023-02-12T10:53:52;100527.50;;;3.73;100.00
39897;BME280;25567;48.276;14.242;2023-02-12T10:56:23;100515.63;;;3.79;100.00
39897;BME280;25567;48.276;14.242;2023-02-12T10:58:56;100526.41;;;3.76;100.00
39897;BME280;25567;48.276;14.242;2023-02-12T11:01:28;100527.09;;;3.78;100.00
39897;BME280;25567;48.276;14.242;2023-02-12T11:03:59;100520.50;;;3.93;100.00
39897;BME280;25567;48.276;14.242;2023-02-12T11:06:30;100523.13;;;3.93;100.00
39897;BME280;25567;48.276;14.242;2023-02-12T11:08:59;100524.81;;;3.94;100.00
39897;BME280;25567;48.276;14.242;2023-02-12T11:11:29;100518.88;;;4.02;100.00
39897;BME280;25567;48.276;14.242;2023-02-12T11:14:14;100516.78;;;4.06;100.00
39897;BME280;25567;48.276;14.242;2023-02-12T11:16:52;100509.38;;;4.21;100.00
39897;BME280;25567;48.276;14.242;2023-02-12T11:19:24;100509.38;;;4.21;100.00
39897;BME280;25567;48.276;14.242;2023-02-12T11:24:36;100500.50;;;4.22;100.00
39897;BME280;25567;48.276;14.242;2023-02-12T11:27:22;100507.97;;;4.26;100.00
39897;BME280;25567;48.276;14.242;2023-02-12T11:30:15;100503.69;;;4.25;100.00
39897;BME280;25567;48.276;14.242;2023-02-12T11:32:44;100508.56;;;4.30;100.00
39897;BME280;25567;48.276;14.242;2023-02-12T11:37:55;100504.66;;;4.44;100.00
39897;BME280;25567;48.276;14.242;2023-02-12T11:40:30;100494.72;;;4.47;100.00
39897;BME280;25567;48.276;14.242;2023-02-12T11:43:05;100497.06;;;4.50;100.00
39897;BME280;25567;48.276;14.242;2023-02-12T11:45:41;100498.03;;;4.40;100.00
39897;BME280;25567;48.276;14.242;2023-02-12T11:48:19;100500.38;;;4.43;100.00
39897;BME280;25567;48.276;14.242;2023-02-12T11:50:52;100495.25;;;4.41;100.00
39897;BME280;25567;48.276;14.242;2023-02-12T11:53:24;100490.56;;;4.45;100.00
39897;BME280;25567;48.276;14.242;2023-02-12T11:55:59;100488.63;;;4.47;100.00
39897;BME280;25567;48.276;14.242;2023-02-12T11:58:30;100495.66;;;4.56;100.00
39897;BME280;25567;48.276;14.242;2023-02-12T12:04:04;100484.47;;;4.64;100.00
39897;BME280;25567;48.276;14.242;2023-02-12T12:07:42;100487.22;;;4.62;100.00
39897;BME280;25567;48.276;14.242;2023-02-12T12:09:32;100487.50;;;4.69;100.00
39897;BME280;25567;48.276;14.242;2023-02-12T12:12:18;100488.06;;;4.73;100.00
39897;BME280;25567;48.276;14.242;2023-02-12T12:14:59;100493.72;;;4.68;100.00
39897;BME280;25567;48.276;14.242;2023-02-12T12:17:52;100487.09;;;4.64;100.00
39897;BME280;25567;48.276;14.242;2023-02-12T12:20:55;100492.34;;;4.74;100.00
39897;BME280;25567;48.276;14.242;2023-02-12T12:23:39;100482.66;;;4.74;100.00
39897;BME280;25567;48.276;14.242;2023-02-12T12:26:17;100479.88;;;4.76;100.00
39897;BME280;25567;48.276;14.242;2023-02-12T12:29:03;100483.06;;;4.79;100.00
39897;BME280;25567;48.276;14.242;2023-02-12T12:31:42;100482.25;;;4.79;100.00
39897;BME280;25567;48.276;14.242;2023-02-12T12:34:15;100479.63;;;4.79;100.00
39897;BME280;25567;48.276;14.242;2023-02-12T12:48:16;100460.19;;;4.99;100.00
39897;BME280;25567;48.276;14.242;2023-02-12T12:56:22;100454.47;;;5.14;100.00
39897;BME280;25567;48.276;14.242;2023-02-12T13:04:35;100452.09;;;5.21;100.00
39897;BME280;25567;48.276;14.242;2023-02-12T13:07:12;100452.50;;;5.26;100.00
39897;BME280;25567;48.276;14.242;2023-02-12T13:09:53;100453.84;;;5.30;100.00
39897;BME280;25567;48.276;14.242;2023-02-12T13:15:42;100455.28;;;5.52;98.19
39897;BME280;25567;48.276;14.242;2023-02-12T13:26:32;100453.91;;;5.48;96.92
39897;BME280;25567;48.276;14.242;2023-02-12T13:32:03;100464.31;;;5.49;97.55
39897;BME280;25567;48.276;14.242;2023-02-12T13:34:34;100458.72;;;5.53;97.48
39897;BME280;25567;48.276;14.242;2023-02-12T13:37:14;100458.00;;;5.60;97.09
39897;BME280;25567;48.276;14.242;2023-02-12T13:39:47;100460.06;;;5.66;97.31
39897;BME280;25567;48.276;14.242;2023-02-12T13:50:44;100452.88;;;5.87;95.55
39897;BME280;25567;48.276;14.242;2023-02-12T13:56:10;100452.78;;;5.96;93.56
39897;BME280;25567;48.276;14.242;2023-02-12T13:58:51;100440.09;;;5.92;94.13
39897;BME280;25567;48.276;14.242;2023-02-12T14:01:43;100442.50;;;5.85;93.64
39897;BME280;25567;48.276;14.242;2023-02-12T14:04:28;100442.88;;;5.90;94.52
39897;BME280;25567;48.276;14.242;2023-02-12T14:07:07;100436.91;;;5.88;94.91
39897;BME280;25567;48.276;14.242;2023-02-12T14:09:42;100443.09;;;5.97;94.79
39897;BME280;25567;48.276;14.242;2023-02-12T14:14:46;100452.88;;;5.87;94.73
39897;BME280;25567;48.276;14.242;2023-02-12T14:20:22;100445.78;;;5.87;94.81
39897;BME280;25567;48.276;14.242;2023-02-12T14:25:36;100446.09;;;5.84;94.92
39897;BME280;25567;48.276;14.242;2023-02-12T14:28:19;100441.22;;;5.89;94.14
39897;BME280;25567;48.276;14.242;2023-02-12T14:36:46;100442.66;;;6.01;93.99
39897;BME280;25567;48.276;14.242;2023-02-12T14:39:28;100437.44;;;5.92;93.51
39897;BME280;25567;48.276;14.242;2023-02-12T14:44:54;100437.97;;;5.95;93.80
39897;BME280;25567;48.276;14.242;2023-02-12T14:50:24;100434.34;;;5.96;93.51
39897;BME280;25567;48.276;14.242;2023-02-12T14:53:03;100435.91;;;5.99;93.79
39897;BME280;25567;48.276;14.242;2023-02-12T14:55:33;100437.09;;;6.05;94.45
39897;BME280;25567;48.276;14.242;2023-02-12T14:58:14;100435.22;;;6.15;93.74
39897;BME280;25567;48.276;14.242;2023-02-12T15:00:46;100435.28;;;6.23;93.39
39897;BME280;25567;48.276;14.242;2023-02-12T15:03:24;100438.06;;;6.40;92.87
39897;BME280;25567;48.276;14.242;2023-02-12T15:06:02;100429.78;;;6.79;90.81
39897;BME280;25567;48.276;14.242;2023-02-12T15:09:01;100431.81;;;7.20;88.73
39897;BME280;25567;48.276;14.242;2023-02-12T15:11:49;100429.22;;;7.79;85.84
39897;BME280;25567;48.276;14.242;2023-02-12T15:14:34;100430.59;;;8.74;80.79